Time;durP1;ratioP1;P1;durP2;ratioP2;P2;SDS_P1;SDS_P2;PMS_P1;PMS_P2;Temp;Humidity;BMP_temperature;BMP_pressure;BME280_temperature;BME280_humidity;BME280_pressure;Samples;Min_cycle;Max_cycle;Signal;HPM_P1;HPM_P2
2023/05/07 00:00:38;;;;;;;1999.90;999.90;;;;;;;;;;6332606;22;20019;-76
2023/05/07 00:03:05;;;;;;;1999.90;999.90;;;;;;;;;;6332058;22;20017;-76
2023/05/07 00:05:31;;;;;;;1999.90;999.90;;;;;;;;;;6333944;22;20021;-77
2023/05/07 00:07:57;;;;;;;1999.90;999.90;;;;;;;;;;6332114;22;20049;-77
2023/05/07 00:10:23;;;;;;;1999.90;999.90;;;;;;;;;;6332727;22;20139;-76
2023/05/07 00:12:49;;;;;;;1999.90;999.90;;;;;;;;;;6333455;22;20007;-76
2023/05/07 00:15:15;;;;;;;1999.90;999.90;;;;;;;;;;6332185;22;20022;-77
2023/05/07 00:17:41;;;;;;;1999.90;999.90;;;;;;;;;;6331901;22;20628;-76
2023/05/07 00:20:07;;;;;;;1999.90;999.90;;;;;;;;;;6330564;22;20011;-76
2023/05/07 00:22:33;;;;;;;1999.90;999.90;;;;;;;;;;6305787;22;20011;-77
2023/05/07 00:25:00;;;;;;;1999.90;999.90;;;;;;;;;;6331812;22;20017;-76
2023/05/07 00:27:26;;;;;;;1999.90;999.90;;;;;;;;;;6333275;22;20025;-76
2023/05/07 00:29:52;;;;;;;1999.90;999.90;;;;;;;;;;6332804;22;20014;-76
2023/05/07 00:32:18;;;;;;;1999.90;999.90;;;;;;;;;;6331129;22;20011;-77
2023/05/07 00:34:44;;;;;;;1999.90;999.90;;;;;;;;;;6333522;22;20019;-76
2023/05/07 00:37:11;;;;;;;1999.90;999.90;;;;;;;;;;6332159;22;20011;-76
2023/05/07 00:39:37;;;;;;;1999.90;999.90;;;;;;;;;;6331435;22;20021;-76
2023/05/07 00:42:04;;;;;;;1999.90;999.90;;;;;;;;;;6331581;22;20089;-76
2023/05/07 00:44:30;;;;;;;1999.90;999.90;;;;;;;;;;6333026;22;20019;-76
2023/05/07 00:46:57;;;;;;;1999.90;999.90;;;;;;;;;;6331306;22;20071;-77
2023/05/07 00:49:25;;;;;;;1999.90;999.90;;;;;;;;;;6332328;22;20366;-76
2023/05/07 00:51:51;;;;;;;1999.90;999.90;;;;;;;;;;6333661;22;20015;-77
2023/05/07 00:54:18;;;;;;;1999.90;999.90;;;;;;;;;;6331957;22;20015;-76
2023/05/07 00:56:45;;;;;;;1999.90;999.90;;;;;;;;;;6332437;22;20011;-76
2023/05/07 00:59:11;;;;;;;1999.90;999.90;;;;;;;;;;6331432;22;20022;-76
2023/05/07 01:01:37;;;;;;;1999.90;999.90;;;;;;;;;;6332159;22;20010;-76
2023/05/07 01:04:03;;;;;;;1999.90;999.90;;;;;;;;;;6303910;22;20022;-76
2023/05/07 01:06:30;;;;;;;1999.90;999.90;;;;;;;;;;6333637;22;20068;-76
2023/05/07 01:08:57;;;;;;;1999.90;999.90;;;;;;;;;;6332345;22;20086;-76
2023/05/07 01:11:23;;;;;;;1999.90;999.90;;;;;;;;;;6332150;22;20452;-76
2023/05/07 01:13:50;;;;;;;1999.90;999.90;;;;;;;;;;6333311;22;20015;-76
2023/05/07 01:16:16;;;;;;;1999.90;999.90;;;;;;;;;;6303179;22;20481;-76
2023/05/07 01:18:42;;;;;;;1999.90;999.90;;;;;;;;;;6305625;22;20041;-76
2023/05/07 01:21:11;;;;;;;1999.90;999.90;;;;;;;;;;6331054;22;20324;-74
2023/05/07 01:23:39;;;;;;;1999.90;999.90;;;;;;;;;;6334017;22;20015;-75
2023/05/07 01:26:05;;;;;;;1999.90;999.90;;;;;;;;;;6332807;22;20019;-75
2023/05/07 01:28:31;;;;;;;1999.90;999.90;;;;;;;;;;6334005;22;20056;-75
2023/05/07 01:31:01;;;;;;;1999.90;999.90;;;;;;;;;;6333321;22;20046;-75
2023/05/07 01:33:31;;;;;;;1999.90;999.90;;;;;;;;;;6334309;22;20481;-75
2023/05/07 01:36:00;;;;;;;1999.90;999.90;;;;;;;;;;6334337;22;20044;-75
2023/05/07 01:38:26;;;;;;;1999.90;999.90;;;;;;;;;;6334414;22;20373;-75
2023/05/07 01:40:53;;;;;;;1999.90;999.90;;;;;;;;;;6333057;22;20014;-75
2023/05/07 01:43:19;;;;;;;1999.90;999.90;;;;;;;;;;6334221;22;20042;-75
2023/05/07 01:45:46;;;;;;;1999.90;999.90;;;;;;;;;;6306312;22;20050;-75
2023/05/07 01:48:13;;;;;;;1999.90;999.90;;;;;;;;;;6333058;22;20022;-75
2023/05/07 01:50:39;;;;;;;1999.90;999.90;;;;;;;;;;6334071;22;20077;-75
2023/05/07 01:53:05;;;;;;;1999.90;999.90;;;;;;;;;;6333237;22;20053;-76
2023/05/07 01:55:31;;;;;;;1999.90;999.90;;;;;;;;;;6333356;22;20010;-75
2023/05/07 01:57:58;;;;;;;1999.90;999.90;;;;;;;;;;6332916;22;20007;-75
2023/05/07 02:00:24;;;;;;;1999.90;999.90;;;;;;;;;;6334323;22;20079;-75
2023/05/07 02:02:50;;;;;;;1999.90;999.90;;;;;;;;;;6333825;22;20014;-75
2023/05/07 02:05:16;;;;;;;1999.90;999.90;;;;;;;;;;6333571;22;20116;-75
2023/05/07 02:07:42;;;;;;;1999.90;999.90;;;;;;;;;;6334717;22;20034;-75
2023/05/07 02:10:08;;;;;;;1999.90;999.90;;;;;;;;;;6332576;22;20109;-75
2023/05/07 02:12:34;;;;;;;1999.90;999.90;;;;;;;;;;6333709;22;20041;-75
2023/05/07 02:15:00;;;;;;;1999.90;999.90;;;;;;;;;;6305618;22;20344;-75
2023/05/07 02:17:26;;;;;;;1999.90;999.90;;;;;;;;;;6333216;22;20023;-75
2023/05/07 02:19:52;;;;;;;1999.90;999.90;;;;;;;;;;6334295;22;20018;-75
2023/05/07 02:22:18;;;;;;;1999.90;999.90;;;;;;;;;;6333549;22;20014;-75
2023/05/07 02:24:44;;;;;;;1999.90;999.90;;;;;;;;;;6333834;22;20011;-75
2023/05/07 02:27:10;;;;;;;1999.90;999.90;;;;;;;;;;6332295;22;20041;-75
2023/05/07 02:29:36;;;;;;;1999.90;999.90;;;;;;;;;;6306229;22;20021;-75
2023/05/07 02:32:02;;;;;;;1999.90;999.90;;;;;;;;;;6332669;22;20018;-75
2023/05/07 02:34:28;;;;;;;1999.90;999.90;;;;;;;;;;6333451;22;20121;-75
2023/05/07 02:36:55;;;;;;;1999.90;999.90;;;;;;;;;;6333751;22;20046;-75
2023/05/07 02:39:21;;;;;;;1999.90;999.90;;;;;;;;;;6333857;22;20025;-75
2023/05/07 02:41:47;;;;;;;1999.90;999.90;;;;;;;;;;6305771;22;20018;-75
2023/05/07 02:44:13;;;;;;;1999.90;999.90;;;;;;;;;;6332955;22;20339;-75
2023/05/07 02:46:39;;;;;;;1999.90;999.90;;;;;;;;;;6305379;22;20026;-75
2023/05/07 02:49:05;;;;;;;1999.90;999.90;;;;;;;;;;6332183;22;20015;-75
2023/05/07 02:51:32;;;;;;;1999.90;999.90;;;;;;;;;;6333762;22;20015;-75
2023/05/07 02:53:58;;;;;;;1999.90;999.90;;;;;;;;;;6305311;22;20029;-75
2023/05/07 02:56:26;;;;;;;1999.90;999.90;;;;;;;;;;6305711;22;20022;-75
2023/05/07 02:58:52;;;;;;;1999.90;999.90;;;;;;;;;;6333487;22;20022;-75
2023/05/07 03:01:18;;;;;;;1999.90;999.90;;;;;;;;;;6331355;22;20015;-75
2023/05/07 03:03:44;;;;;;;1999.90;999.90;;;;;;;;;;6333034;22;20060;-75
2023/05/07 03:06:10;;;;;;;1999.90;999.90;;;;;;;;;;6332598;22;20388;-75
2023/05/07 03:08:36;;;;;;;1999.90;999.90;;;;;;;;;;6334285;22;20018;-75
2023/05/07 03:11:02;;;;;;;1999.90;999.90;;;;;;;;;;6331492;22;20010;-74
2023/05/07 03:13:28;;;;;;;1999.90;999.90;;;;;;;;;;6305984;22;20022;-75
2023/05/07 03:15:54;;;;;;;1999.90;999.90;;;;;;;;;;6305295;22;20011;-75
2023/05/07 03:18:20;;;;;;;1999.90;999.90;;;;;;;;;;6332719;22;20112;-75
2023/05/07 03:20:46;;;;;;;1999.90;999.90;;;;;;;;;;6333382;22;20014;-75
2023/05/07 03:23:12;;;;;;;1999.90;999.90;;;;;;;;;;6332258;22;20007;-75
2023/05/07 03:25:38;;;;;;;1999.90;999.90;;;;;;;;;;6333194;22;20097;-75
2023/05/07 03:28:05;;;;;;;1999.90;999.90;;;;;;;;;;6332484;22;20010;-75
2023/05/07 03:30:31;;;;;;;1999.90;999.90;;;;;;;;;;6306126;22;20014;-75
2023/05/07 03:32:57;;;;;;;1999.90;999.90;;;;;;;;;;6332646;22;20034;-75
2023/05/07 03:35:23;;;;;;;1999.90;999.90;;;;;;;;;;6332589;22;20094;-75
2023/05/07 03:37:49;;;;;;;1999.90;999.90;;;;;;;;;;6333953;22;20604;-75
2023/05/07 03:40:15;;;;;;;1999.90;999.90;;;;;;;;;;6332184;22;20022;-75
2023/05/07 03:42:41;;;;;;;1999.90;999.90;;;;;;;;;;6333775;22;20028;-75
2023/05/07 03:45:07;;;;;;;1999.90;999.90;;;;;;;;;;6331567;22;20019;-74
2023/05/07 03:47:33;;;;;;;1999.90;999.90;;;;;;;;;;6333387;22;20053;-75
2023/05/07 03:49:59;;;;;;;1999.90;999.90;;;;;;;;;;6331628;22;20007;-75
2023/05/07 03:52:25;;;;;;;1999.90;999.90;;;;;;;;;;6333164;22;20021;-75
2023/05/07 03:54:53;;;;;;;1999.90;999.90;;;;;;;;;;6332881;22;20331;-75
2023/05/07 03:57:19;;;;;;;1999.90;999.90;;;;;;;;;;6332303;22;20469;-75
2023/05/07 03:59:45;;;;;;;1999.90;999.90;;;;;;;;;;6332918;22;20382;-75
2023/05/07 04:02:11;;;;;;;1999.90;999.90;;;;;;;;;;6331736;22;20011;-75
2023/05/07 04:04:37;;;;;;;1999.90;999.90;;;;;;;;;;6333330;22;20332;-75
2023/05/07 04:07:03;;;;;;;1999.90;999.90;;;;;;;;;;6331840;22;20042;-75
2023/05/07 04:09:29;;;;;;;1999.90;999.90;;;;;;;;;;6332832;22;20063;-75
2023/05/07 04:11:55;;;;;;;1999.90;999.90;;;;;;;;;;6332645;22;20019;-75
2023/05/07 04:14:21;;;;;;;1999.90;999.90;;;;;;;;;;6305173;22;20019;-75
2023/05/07 04:16:47;;;;;;;1999.90;999.90;;;;;;;;;;6332280;22;20025;-75
2023/05/07 04:19:13;;;;;;;1999.90;999.90;;;;;;;;;;6331986;22;20081;-75
2023/05/07 04:21:39;;;;;;;1999.90;999.90;;;;;;;;;;6333444;22;20324;-75
2023/05/07 04:24:05;;;;;;;1999.90;999.90;;;;;;;;;;6331195;22;20057;-75
2023/05/07 04:26:31;;;;;;;1999.90;999.90;;;;;;;;;;6333120;22;20006;-75
2023/05/07 04:28:59;;;;;;;1999.90;999.90;;;;;;;;;;6305019;22;20059;-75
2023/05/07 04:31:25;;;;;;;1999.90;999.90;;;;;;;;;;6304954;22;20011;-75
2023/05/07 04:33:51;;;;;;;1999.90;999.90;;;;;;;;;;6332502;22;20316;-75
2023/05/07 04:36:17;;;;;;;1999.90;999.90;;;;;;;;;;6330864;22;20018;-75
2023/05/07 04:38:43;;;;;;;1999.90;999.90;;;;;;;;;;6332556;22;20014;-75
2023/05/07 04:41:10;;;;;;;1999.90;999.90;;;;;;;;;;6304654;22;20076;-75
2023/05/07 04:43:36;;;;;;;1999.90;999.90;;;;;;;;;;6333520;22;20014;-75
2023/05/07 04:46:01;;;;;;;1999.90;999.90;;;;;;;;;;6302948;22;20030;-75
2023/05/07 04:48:28;;;;;;;1999.90;999.90;;;;;;;;;;6333017;22;20085;-75
2023/05/07 04:50:55;;;;;;;1999.90;999.90;;;;;;;;;;6304506;22;20082;-75
2023/05/07 04:53:21;;;;;;;1999.90;999.90;;;;;;;;;;6332644;22;20018;-75
2023/05/07 04:55:47;;;;;;;1999.90;999.90;;;;;;;;;;6333184;22;20386;-75
2023/05/07 04:58:13;;;;;;;1999.90;999.90;;;;;;;;;;6333170;22;20022;-75
2023/05/07 05:00:39;;;;;;;1999.90;999.90;;;;;;;;;;6334712;22;20149;-75
2023/05/07 05:03:07;;;;;;;1999.90;999.90;;;;;;;;;;6333535;22;20018;-75
2023/05/07 05:05:32;;;;;;;1999.90;999.90;;;;;;;;;;6331656;22;20022;-74
2023/05/07 05:07:59;;;;;;;1999.90;999.90;;;;;;;;;;6329616;22;20027;-74
2023/05/07 05:10:25;;;;;;;1999.90;999.90;;;;;;;;;;6333664;22;20049;-74
2023/05/07 05:12:51;;;;;;;1999.90;999.90;;;;;;;;;;6332931;22;20019;-74
2023/05/07 05:15:17;;;;;;;1999.90;999.90;;;;;;;;;;6306049;22;20025;-74
2023/05/07 05:17:43;;;;;;;1999.90;999.90;;;;;;;;;;6333719;22;20046;-75
2023/05/07 05:20:12;;;;;;;1999.90;999.90;;;;;;;;;;6304544;22;20050;-74
2023/05/07 05:22:38;;;;;;;1999.90;999.90;;;;;;;;;;6306130;22;20434;-74
2023/05/07 05:25:04;;;;;;;1999.90;999.90;;;;;;;;;;6305336;22;20069;-75
2023/05/07 05:27:30;;;;;;;1999.90;999.90;;;;;;;;;;6334042;22;20427;-75
2023/05/07 05:29:56;;;;;;;1999.90;999.90;;;;;;;;;;6332410;22;20106;-74
2023/05/07 05:32:22;;;;;;;1999.90;999.90;;;;;;;;;;6303790;22;20029;-75
2023/05/07 05:34:48;;;;;;;1999.90;999.90;;;;;;;;;;6333798;22;20014;-74
2023/05/07 05:37:14;;;;;;;1999.90;999.90;;;;;;;;;;6331081;22;20276;-74
2023/05/07 05:39:41;;;;;;;1999.90;999.90;;;;;;;;;;6333516;22;20089;-73
2023/05/07 05:42:07;;;;;;;1999.90;999.90;;;;;;;;;;6332962;22;20335;-74
2023/05/07 05:44:33;;;;;;;1999.90;999.90;;;;;;;;;;6306061;22;20104;-75
2023/05/07 05:46:59;;;;;;;1999.90;999.90;;;;;;;;;;6333294;22;20019;-74
2023/05/07 05:49:25;;;;;;;1999.90;999.90;;;;;;;;;;6333991;22;20088;-74
2023/05/07 05:51:51;;;;;;;1999.90;999.90;;;;;;;;;;6335224;22;20018;-74
2023/05/07 05:54:17;;;;;;;1999.90;999.90;;;;;;;;;;6333360;22;20015;-73
2023/05/07 05:56:43;;;;;;;1999.90;999.90;;;;;;;;;;6306357;22;20702;-74
2023/05/07 05:59:09;;;;;;;1999.90;999.90;;;;;;;;;;6333753;22;20015;-75
2023/05/07 06:01:35;;;;;;;1999.90;999.90;;;;;;;;;;6335845;22;20328;-75
2023/05/07 06:04:02;;;;;;;1999.90;999.90;;;;;;;;;;6334069;22;20041;-76
2023/05/07 06:06:28;;;;;;;1999.90;999.90;;;;;;;;;;6335181;22;20007;-75
2023/05/07 06:08:54;;;;;;;1999.90;999.90;;;;;;;;;;6306945;22;20011;-75
2023/05/07 06:11:20;;;;;;;1999.90;999.90;;;;;;;;;;6334784;22;20007;-75
2023/05/07 06:13:46;;;;;;;1999.90;999.90;;;;;;;;;;6334419;22;20018;-75
2023/05/07 06:16:12;;;;;;;1999.90;999.90;;;;;;;;;;6333231;22;20063;-75
2023/05/07 06:18:38;;;;;;;1999.90;999.90;;;;;;;;;;6334250;22;20046;-75
2023/05/07 06:21:04;;;;;;;1999.90;999.90;;;;;;;;;;6332652;22;20011;-75
2023/05/07 06:23:30;;;;;;;1999.90;999.90;;;;;;;;;;6334372;22;20053;-75
2023/05/07 06:25:56;;;;;;;1999.90;999.90;;;;;;;;;;6306449;22;20014;-75
2023/05/07 06:28:22;;;;;;;1999.90;999.90;;;;;;;;;;6335011;22;20332;-78
2023/05/07 06:30:49;;;;;;;1999.90;999.90;;;;;;;;;;6333873;22;20010;-76
2023/05/07 06:33:15;;;;;;;1999.90;999.90;;;;;;;;;;6333102;22;20026;-76
2023/05/07 06:35:41;;;;;;;1999.90;999.90;;;;;;;;;;6334807;22;20015;-76
2023/05/07 06:38:07;;;;;;;1999.90;999.90;;;;;;;;;;6333275;22;20011;-75
2023/05/07 06:40:33;;;;;;;1999.90;999.90;;;;;;;;;;6333257;22;20010;-75
2023/05/07 06:42:59;;;;;;;1999.90;999.90;;;;;;;;;;6333297;22;20081;-75
2023/05/07 06:45:25;;;;;;;1999.90;999.90;;;;;;;;;;6334348;22;20025;-75
2023/05/07 06:47:51;;;;;;;1999.90;999.90;;;;;;;;;;6333108;22;20042;-75
2023/05/07 06:50:17;;;;;;;1999.90;999.90;;;;;;;;;;6330496;22;20498;-76
2023/05/07 06:52:43;;;;;;;1999.90;999.90;;;;;;;;;;6333826;22;20011;-76
2023/05/07 06:55:11;;;;;;;1999.90;999.90;;;;;;;;;;6333419;22;20010;-73
2023/05/07 06:57:37;;;;;;;1999.90;999.90;;;;;;;;;;6332754;22;20025;-73
2023/05/07 07:00:04;;;;;;;1999.90;999.90;;;;;;;;;;6332907;22;20021;-73
2023/05/07 07:02:30;;;;;;;1999.90;999.90;;;;;;;;;;6333363;22;20011;-77
2023/05/07 07:04:56;;;;;;;1999.90;999.90;;;;;;;;;;6333493;22;20017;-75
2023/05/07 07:07:22;;;;;;;1999.90;999.90;;;;;;;;;;6306612;22;20015;-74
2023/05/07 07:09:48;;;;;;;1999.90;999.90;;;;;;;;;;6307289;22;20081;-76
2023/05/07 07:12:14;;;;;;;1999.90;999.90;;;;;;;;;;6334120;22;20080;-78
2023/05/07 07:14:40;;;;;;;1999.90;999.90;;;;;;;;;;6307363;22;20094;-78
2023/05/07 07:17:06;;;;;;;1999.90;999.90;;;;;;;;;;6304459;22;20014;-79
2023/05/07 07:19:32;;;;;;;1999.90;999.90;;;;;;;;;;6334447;22;20012;-78
2023/05/07 07:21:58;;;;;;;1999.90;999.90;;;;;;;;;;6332364;22;20144;-79
2023/05/07 07:24:24;;;;;;;1999.90;999.90;;;;;;;;;;6334679;22;20050;-78
2023/05/07 07:26:50;;;;;;;1999.90;999.90;;;;;;;;;;6334001;22;20025;-78
2023/05/07 07:29:16;;;;;;;1999.90;999.90;;;;;;;;;;6306536;22;20015;-78
2023/05/07 07:31:42;;;;;;;1999.90;999.90;;;;;;;;;;6333855;22;20105;-78
2023/05/07 07:34:08;;;;;;;1999.90;999.90;;;;;;;;;;6332821;22;20046;-79
2023/05/07 07:36:34;;;;;;;1999.90;999.90;;;;;;;;;;6333312;22;20380;-85
2023/05/07 07:39:00;;;;;;;1999.90;999.90;;;;;;;;;;6333986;22;20011;-84
2023/05/07 07:41:26;;;;;;;1999.90;999.90;;;;;;;;;;6333646;22;20042;-76
2023/05/07 07:43:52;;;;;;;1999.90;999.90;;;;;;;;;;6303444;22;20321;-76
2023/05/07 07:46:18;;;;;;;1999.90;999.90;;;;;;;;;;6332069;22;20098;-72
2023/05/07 07:48:44;;;;;;;1999.90;999.90;;;;;;;;;;6306250;22;20029;-72
2023/05/07 07:51:10;;;;;;;1999.90;999.90;;;;;;;;;;6332107;22;20014;-74
2023/05/07 07:53:36;;;;;;;1999.90;999.90;;;;;;;;;;6333661;22;20301;-78
2023/05/07 07:56:02;;;;;;;1999.90;999.90;;;;;;;;;;6332226;22;20095;-78
2023/05/07 07:58:28;;;;;;;1999.90;999.90;;;;;;;;;;6335006;22;20014;-78
2023/05/07 08:00:55;;;;;;;1999.90;999.90;;;;;;;;;;6330667;22;20018;-78
2023/05/07 08:03:22;;;;;;;1999.90;999.90;;;;;;;;;;6305717;22;20014;-78
2023/05/07 08:05:50;;;;;;;1999.90;999.90;;;;;;;;;;6305644;22;20046;-77
2023/05/07 08:08:16;;;;;;;1999.90;999.90;;;;;;;;;;6302714;22;20014;-80
2023/05/07 08:10:43;;;;;;;1999.90;999.90;;;;;;;;;;6334854;22;20081;-78
2023/05/07 08:13:09;;;;;;;1999.90;999.90;;;;;;;;;;6333589;22;20042;-79
2023/05/07 08:15:35;;;;;;;1999.90;999.90;;;;;;;;;;6333207;22;20018;-78
2023/05/07 08:18:02;;;;;;;1999.90;999.90;;;;;;;;;;6302380;22;20058;-78
2023/05/07 08:20:28;;;;;;;1999.90;999.90;;;;;;;;;;6332769;22;20137;-78
2023/05/07 08:22:54;;;;;;;1999.90;999.90;;;;;;;;;;6305498;22;20090;-82
2023/05/07 08:25:20;;;;;;;1999.90;999.90;;;;;;;;;;6305823;22;20053;-78
2023/05/07 08:27:46;;;;;;;1999.90;999.90;;;;;;;;;;6334954;22;20301;-79
2023/05/07 08:30:13;;;;;;;1999.90;999.90;;;;;;;;;;6332498;22;20292;-80
2023/05/07 08:32:39;;;;;;;1999.90;999.90;;;;;;;;;;6306406;22;20015;-80
2023/05/07 08:35:05;;;;;;;1999.90;999.90;;;;;;;;;;6304709;22;20015;-77
2023/05/07 08:37:31;;;;;;;1999.90;999.90;;;;;;;;;;6305492;22;20014;-82
2023/05/07 08:39:57;;;;;;;1999.90;999.90;;;;;;;;;;6332674;22;20455;-75
2023/05/07 08:42:24;;;;;;;1999.90;999.90;;;;;;;;;;6334653;22;20015;-75
2023/05/07 08:44:55;;;;;;;1999.90;999.90;;;;;;;;;;6332662;22;20021;-75
2023/05/07 08:47:23;;;;;;;1999.90;999.90;;;;;;;;;;6332909;22;20026;-75
2023/05/07 08:49:50;;;;;;;1999.90;999.90;;;;;;;;;;6330676;22;20063;-77
2023/05/07 08:52:16;;;;;;;1999.90;999.90;;;;;;;;;;6305520;22;20015;-77
2023/05/07 08:54:42;;;;;;;1999.90;999.90;;;;;;;;;;6334149;22;20007;-77
2023/05/07 08:57:08;;;;;;;1999.90;999.90;;;;;;;;;;6305172;22;20011;-75
2023/05/07 08:59:35;;;;;;;1999.90;999.90;;;;;;;;;;6333801;22;20007;-75
2023/05/07 09:02:01;;;;;;;1999.90;999.90;;;;;;;;;;6332386;22;20018;-75
2023/05/07 09:04:28;;;;;;;1999.90;999.90;;;;;;;;;;6332079;22;20015;-75
2023/05/07 09:06:55;;;;;;;1999.90;999.90;;;;;;;;;;6331965;22;20006;-75
2023/05/07 09:09:22;;;;;;;1999.90;999.90;;;;;;;;;;6332054;22;20030;-75
2023/05/07 09:11:48;;;;;;;1999.90;999.90;;;;;;;;;;6332022;22;20018;-74
2023/05/07 09:14:14;;;;;;;1999.90;999.90;;;;;;;;;;6302111;22;20309;-74
2023/05/07 09:16:40;;;;;;;1999.90;999.90;;;;;;;;;;6332218;22;20449;-75
2023/05/07 09:19:06;;;;;;;1999.90;999.90;;;;;;;;;;6333569;22;20014;-74
2023/05/07 09:21:32;;;;;;;1999.90;999.90;;;;;;;;;;6333456;22;20042;-74
2023/05/07 09:23:58;;;;;;;1999.90;999.90;;;;;;;;;;6333468;22;20102;-74
2023/05/07 09:26:25;;;;;;;1999.90;999.90;;;;;;;;;;6334693;22;20042;-74
2023/05/07 09:28:51;;;;;;;1999.90;999.90;;;;;;;;;;6333534;22;20109;-74
2023/05/07 09:31:17;;;;;;;1999.90;999.90;;;;;;;;;;6333004;22;20086;-74
2023/05/07 09:33:43;;;;;;;1999.90;999.90;;;;;;;;;;6334487;22;20424;-74
2023/05/07 09:36:09;;;;;;;1999.90;999.90;;;;;;;;;;6332255;22;20081;-82
2023/05/07 09:38:36;;;;;;;1999.90;999.90;;;;;;;;;;6305855;22;20076;-80
2023/05/07 09:41:06;;;;;;;1999.90;999.90;;;;;;;;;;6333551;22;20050;-82
2023/05/07 09:43:34;;;;;;;1999.90;999.90;;;;;;;;;;6333973;22;20068;-80
2023/05/07 09:46:01;;;;;;;1999.90;999.90;;;;;;;;;;6306833;22;20050;-80
2023/05/07 09:48:28;;;;;;;1999.90;999.90;;;;;;;;;;6307896;22;20081;-77
2023/05/07 09:50:59;;;;;;;1999.90;999.90;;;;;;;;;;6307369;22;20006;-86
2023/05/07 09:53:25;;;;;;;1999.90;999.90;;;;;;;;;;6308528;22;20015;-84
2023/05/07 09:55:51;;;;;;;1999.90;999.90;;;;;;;;;;6336537;22;20023;-84
2023/05/07 09:58:19;;;;;;;1999.90;999.90;;;;;;;;;;6332155;22;20029;-84
2023/05/07 10:00:45;;;;;;;1999.90;999.90;;;;;;;;;;6333914;22;20091;-84
2023/05/07 10:03:11;;;;;;;1999.90;999.90;;;;;;;;;;6334723;22;20441;-84
2023/05/07 10:05:37;;;;;;;1999.90;999.90;;;;;;;;;;6308916;22;20038;-79
2023/05/07 10:08:04;;;;;;;1999.90;999.90;;;;;;;;;;6335341;22;20136;-81
2023/05/07 10:10:31;;;;;;;1999.90;999.90;;;;;;;;;;6307148;22;20340;-78
2023/05/07 10:12:57;;;;;;;1999.90;999.90;;;;;;;;;;6333243;22;20022;-78
2023/05/07 10:15:24;;;;;;;1999.90;999.90;;;;;;;;;;6335572;22;20068;-78
2023/05/07 10:17:51;;;;;;;1999.90;999.90;;;;;;;;;;6336106;22;20059;-77
2023/05/07 10:20:17;;;;;;;1999.90;999.90;;;;;;;;;;6307160;22;20452;-78
2023/05/07 10:22:45;;;;;;;1999.90;999.90;;;;;;;;;;6335979;22;20010;-78
2023/05/07 10:25:23;;;;;;;1999.90;999.90;;;;;;;;;;6334439;22;20023;-78
2023/05/07 10:27:50;;;;;;;1999.90;999.90;;;;;;;;;;6306976;22;20011;-78
2023/05/07 10:30:40;;;;;;;1999.90;999.90;;;;;;;;;;6333362;22;20014;-79
2023/05/07 10:33:09;;;;;;;1999.90;999.90;;;;;;;;;;6334226;22;20014;-75
2023/05/07 10:35:40;;;;;;;1999.90;999.90;;;;;;;;;;6307005;22;20481;-75
2023/05/07 10:38:07;;;;;;;1999.90;999.90;;;;;;;;;;6334257;22;20015;-74
2023/05/07 10:40:33;;;;;;;1999.90;999.90;;;;;;;;;;6307545;22;20018;-74
2023/05/07 10:43:00;;;;;;;1999.90;999.90;;;;;;;;;;6334763;22;20014;-74
2023/05/07 10:45:26;;;;;;;1999.90;999.90;;;;;;;;;;6335150;22;20014;-74
2023/05/07 10:48:10;;;;;;;1999.90;999.90;;;;;;;;;;6335228;22;20014;-74
2023/05/07 10:50:37;;;;;;;1999.90;999.90;;;;;;;;;;6307545;22;20074;-74
2023/05/07 10:53:18;;;;;;;1999.90;999.90;;;;;;;;;;6334655;22;20006;-74
2023/05/07 10:55:48;;;;;;;1999.90;999.90;;;;;;;;;;6335004;22;20011;-74
2023/05/07 10:58:25;;;;;;;1999.90;999.90;;;;;;;;;;6306694;22;20046;-74
2023/05/07 11:00:52;;;;;;;1999.90;999.90;;;;;;;;;;6307324;22;20065;-74
2023/05/07 11:03:18;;;;;;;1999.90;999.90;;;;;;;;;;6334038;22;20015;-74
2023/05/07 11:05:47;;;;;;;1999.90;999.90;;;;;;;;;;6307936;22;20377;-74
2023/05/07 11:08:13;;;;;;;1999.90;999.90;;;;;;;;;;6334590;22;20110;-74
2023/05/07 11:10:52;;;;;;;1999.90;999.90;;;;;;;;;;6334679;22;20427;-74
2023/05/07 11:13:19;;;;;;;1999.90;999.90;;;;;;;;;;6335089;22;20011;-74
2023/05/07 11:15:46;;;;;;;1999.90;999.90;;;;;;;;;;6335236;22;20158;-74
2023/05/07 11:18:13;;;;;;;1999.90;999.90;;;;;;;;;;6306389;22;20011;-74
2023/05/07 11:20:43;;;;;;;1999.90;999.90;;;;;;;;;;6335064;22;20006;-74
2023/05/07 11:23:30;;;;;;;1999.90;999.90;;;;;;;;;;6334444;22;20007;-74
2023/05/07 11:26:14;;;;;;;1999.90;999.90;;;;;;;;;;6334412;22;20081;-74
2023/05/07 11:28:41;;;;;;;1999.90;999.90;;;;;;;;;;6335091;22;20025;-74
2023/05/07 11:31:07;;;;;;;1999.90;999.90;;;;;;;;;;6332801;22;20018;-74
2023/05/07 11:33:34;;;;;;;1999.90;999.90;;;;;;;;;;6335029;22;20010;-74
2023/05/07 11:36:00;;;;;;;1999.90;999.90;;;;;;;;;;6305611;22;20026;-74
2023/05/07 11:38:26;;;;;;;1999.90;999.90;;;;;;;;;;6332960;22;20017;-73
2023/05/07 11:40:53;;;;;;;1999.90;999.90;;;;;;;;;;6334303;22;20011;-74
2023/05/07 11:43:19;;;;;;;1999.90;999.90;;;;;;;;;;6334591;22;20033;-74
2023/05/07 11:45:46;;;;;;;1999.90;999.90;;;;;;;;;;6334341;22;20344;-74
2023/05/07 11:48:13;;;;;;;1999.90;999.90;;;;;;;;;;6305546;22;20022;-74
2023/05/07 11:50:51;;;;;;;1999.90;999.90;;;;;;;;;;6306390;22;20019;-74
2023/05/07 11:53:17;;;;;;;1999.90;999.90;;;;;;;;;;6305796;22;20389;-74
2023/05/07 11:55:44;;;;;;;1999.90;999.90;;;;;;;;;;6335604;22;20011;-74
2023/05/07 11:58:11;;;;;;;1999.90;999.90;;;;;;;;;;6334090;22;20014;-75
2023/05/07 12:00:37;;;;;;;1999.90;999.90;;;;;;;;;;6307352;22;20040;-74
2023/05/07 12:03:06;;;;;;;1999.90;999.90;;;;;;;;;;6306135;22;20078;-74
2023/05/07 12:05:32;;;;;;;1999.90;999.90;;;;;;;;;;6306250;22;20089;-74
2023/05/07 12:07:58;;;;;;;1999.90;999.90;;;;;;;;;;6305527;22;20037;-74
2023/05/07 12:10:24;;;;;;;1999.90;999.90;;;;;;;;;;6334586;22;20491;-74
2023/05/07 12:12:50;;;;;;;1999.90;999.90;;;;;;;;;;6307138;22;20071;-74
2023/05/07 12:15:17;;;;;;;1999.90;999.90;;;;;;;;;;6334042;22;20014;-74
2023/05/07 12:17:43;;;;;;;1999.90;999.90;;;;;;;;;;6335022;22;20307;-74
2023/05/07 12:20:10;;;;;;;1999.90;999.90;;;;;;;;;;6331910;22;20014;-74
2023/05/07 12:22:36;;;;;;;1999.90;999.90;;;;;;;;;;6333723;22;20030;-74
2023/05/07 12:25:02;;;;;;;1999.90;999.90;;;;;;;;;;6333610;22;20014;-74
2023/05/07 12:27:28;;;;;;;1999.90;999.90;;;;;;;;;;6335018;22;20086;-74
2023/05/07 12:29:54;;;;;;;1999.90;999.90;;;;;;;;;;6334173;22;20025;-74
2023/05/07 12:32:22;;;;;;;1999.90;999.90;;;;;;;;;;6333665;22;20015;-74
2023/05/07 12:34:50;;;;;;;1999.90;999.90;;;;;;;;;;6334692;22;20034;-74
2023/05/07 12:37:16;;;;;;;1999.90;999.90;;;;;;;;;;6333217;22;20331;-74
2023/05/07 12:39:49;;;;;;;1999.90;999.90;;;;;;;;;;6334526;22;20018;-74
2023/05/07 12:42:16;;;;;;;1999.90;999.90;;;;;;;;;;6333744;22;20029;-74
2023/05/07 12:44:42;;;;;;;1999.90;999.90;;;;;;;;;;6334640;22;20026;-76
2023/05/07 12:47:08;;;;;;;1999.90;999.90;;;;;;;;;;6332717;22;20014;-74
2023/05/07 12:49:38;;;;;;;1999.90;999.90;;;;;;;;;;6334156;22;20042;-74
2023/05/07 12:52:04;;;;;;;1999.90;999.90;;;;;;;;;;6333054;22;20400;-74
2023/05/07 12:54:34;;;;;;;1999.90;999.90;;;;;;;;;;6334706;22;20007;-74
2023/05/07 12:57:00;;;;;;;1999.90;999.90;;;;;;;;;;6333393;22;20017;-74
2023/05/07 12:59:37;;;;;;;1999.90;999.90;;;;;;;;;;6334434;22;20018;-74
2023/05/07 13:02:03;;;;;;;1999.90;999.90;;;;;;;;;;6305414;22;20017;-74
2023/05/07 13:04:29;;;;;;;1999.90;999.90;;;;;;;;;;6306536;22;20019;-74
2023/05/07 13:06:55;;;;;;;1999.90;999.90;;;;;;;;;;6333503;22;20011;-74
2023/05/07 13:09:21;;;;;;;1999.90;999.90;;;;;;;;;;6306418;22;20386;-74
2023/05/07 13:11:47;;;;;;;1999.90;999.90;;;;;;;;;;6306756;22;20014;-74
2023/05/07 13:14:13;;;;;;;1999.90;999.90;;;;;;;;;;6333297;22;20018;-74
2023/05/07 13:16:39;;;;;;;1999.90;999.90;;;;;;;;;;6334870;22;20021;-74
2023/05/07 13:19:05;;;;;;;1999.90;999.90;;;;;;;;;;6334840;22;20339;-74
2023/05/07 13:21:34;;;;;;;1999.90;999.90;;;;;;;;;;6335641;22;20014;-74
2023/05/07 13:24:00;;;;;;;1999.90;999.90;;;;;;;;;;6335034;22;20082;-89
2023/05/07 13:26:26;;;;;;;1999.90;999.90;;;;;;;;;;6308882;22;20045;-89
2023/05/07 13:28:55;;;;;;;1999.90;999.90;;;;;;;;;;6308754;22;20038;-87
2023/05/07 13:31:21;;;;;;;1999.90;999.90;;;;;;;;;;6336190;22;20357;-88
2023/05/07 13:33:47;;;;;;;1999.90;999.90;;;;;;;;;;6336838;22;20089;-92
2023/05/07 13:36:13;;;;;;;1999.90;999.90;;;;;;;;;;6307617;22;20086;-90
2023/05/07 13:38:40;;;;;;;1999.90;999.90;;;;;;;;;;6336812;22;20034;-88